sensor_id;sensor_type;location;lat;lon;timestamp;temperature;humidity
20700;DHT22;10511;51.232;9.420;2023-08-08T00:00:06;12.90;99.90
20700;DHT22;10511;51.232;9.420;2023-08-08T00:02:36;12.90;99.90
20700;DHT22;10511;51.232;9.420;2023-08-08T00:05:03;12.80;99.90
20700;DHT22;10511;51.232;9.420;2023-08-08T00:07:32;12.70;99.90
20700;DHT22;10511;51.232;9.420;2023-08-08T00:09:59;12.70;99.90
20700;DHT22;10511;51.232;9.420;2023-08-08T00:12:26;12.70;99.90
20700;DHT22;10511;51.232;9.420;2023-08-08T00:14:53;12.70;99.90
20700;DHT22;10511;51.232;9.420;2023-08-08T00:17:20;12.60;99.90
20700;DHT22;10511;51.232;9.420;2023-08-08T00:19:47;12.50;99.90
20700;DHT22;10511;51.232;9.420;2023-08-08T00:22:14;12.40;99.90
20700;DHT22;10511;51.232;9.420;2023-08-08T00:24:43;12.40;99.90
20700;DHT22;10511;51.232;9.420;2023-08-08T00:27:10;12.30;99.90
20700;DHT22;10511;51.232;9.420;2023-08-08T00:29:37;12.30;99.90
20700;DHT22;10511;51.232;9.420;2023-08-08T00:32:04;12.30;99.90
20700;DHT22;10511;51.232;9.420;2023-08-08T00:34:31;12.20;99.90
20700;DHT22;10511;51.232;9.420;2023-08-08T00:36:58;12.20;99.90
20700;DHT22;10511;51.232;9.420;2023-08-08T00:39:25;12.20;99.90
20700;DHT22;10511;51.232;9.420;2023-08-08T00:41:54;12.20;99.90
20700;DHT22;10511;51.232;9.420;2023-08-08T00:44:21;12.10;99.90
20700;DHT22;10511;51.232;9.420;2023-08-08T00:46:48;12.10;99.90
20700;DHT22;10511;51.232;9.420;2023-08-08T00:49:15;12.10;99.90
20700;DHT22;10511;51.232;9.420;2023-08-08T00:51:42;11.70;99.90
20700;DHT22;10511;51.232;9.420;2023-08-08T00:54:10;11.50;99.90
20700;DHT22;10511;51.232;9.420;2023-08-08T00:56:37;11.30;99.90
20700;DHT22;10511;51.232;9.420;2023-08-08T00:59:07;11.20;99.90
20700;DHT22;10511;51.232;9.420;2023-08-08T01:01:35;11.40;99.90
20700;DHT22;10511;51.232;9.420;2023-08-08T01:04:02;11.30;99.90
20700;DHT22;10511;51.232;9.420;2023-08-08T01:06:36;11.30;99.90
20700;DHT22;10511;51.232;9.420;2023-08-08T01:09:11;11.20;99.90
20700;DHT22;10511;51.232;9.420;2023-08-08T01:11:40;11.40;99.90
20700;DHT22;10511;51.232;9.420;2023-08-08T01:14:10;11.50;99.90
20700;DHT22;10511;51.232;9.420;2023-08-08T01:16:38;11.40;99.90
20700;DHT22;10511;51.232;9.420;2023-08-08T01:19:07;11.50;99.90
20700;DHT22;10511;51.232;9.420;2023-08-08T01:21:38;11.60;99.90
20700;DHT22;10511;51.232;9.420;2023-08-08T01:24:18;11.60;99.90
20700;DHT22;10511;51.232;9.420;2023-08-08T01:26:45;11.80;99.90
20700;DHT22;10511;51.232;9.420;2023-08-08T01:29:12;11.90;99.90
20700;DHT22;10511;51.232;9.420;2023-08-08T01:31:40;12.00;99.90
20700;DHT22;10511;51.232;9.420;2023-08-08T01:34:07;12.10;99.90
20700;DHT22;10511;51.232;9.420;2023-08-08T01:36:46;12.20;99.90
20700;DHT22;10511;51.232;9.420;2023-08-08T01:39:20;12.20;99.90
20700;DHT22;10511;51.232;9.420;2023-08-08T01:41:50;12.20;99.90
20700;DHT22;10511;51.232;9.420;2023-08-08T01:44:17;12.30;99.90
20700;DHT22;10511;51.232;9.420;2023-08-08T01:46:45;12.30;99.90
20700;DHT22;10511;51.232;9.420;2023-08-08T01:49:12;12.40;99.90
20700;DHT22;10511;51.232;9.420;2023-08-08T01:51:39;12.40;99.90
20700;DHT22;10511;51.232;9.420;2023-08-08T01:54:06;12.50;99.90
20700;DHT22;10511;51.232;9.420;2023-08-08T01:56:35;12.60;99.90
20700;DHT22;10511;51.232;9.420;2023-08-08T01:59:02;12.50;99.90
20700;DHT22;10511;51.232;9.420;2023-08-08T02:01:29;12.60;99.90
20700;DHT22;10511;51.232;9.420;2023-08-08T02:03:56;12.60;99.90
20700;DHT22;10511;51.232;9.420;2023-08-08T02:06:23;12.60;99.90
20700;DHT22;10511;51.232;9.420;2023-08-08T02:08:50;12.50;99.90
20700;DHT22;10511;51.232;9.420;2023-08-08T02:11:17;12.60;99.90
20700;DHT22;10511;51.232;9.420;2023-08-08T02:13:45;12.60;99.90
20700;DHT22;10511;51.232;9.420;2023-08-08T02:16:13;12.60;99.90
20700;DHT22;10511;51.232;9.420;2023-08-08T02:18:40;12.50;99.90
20700;DHT22;10511;51.232;9.420;2023-08-08T02:21:07;12.50;99.90
20700;DHT22;10511;51.232;9.420;2023-08-08T02:23:34;12.50;99.90
20700;DHT22;10511;51.232;9.420;2023-08-08T02:26:01;12.50;99.90
20700;DHT22;10511;51.232;9.420;2023-08-08T02:28:29;12.50;99.90
20700;DHT22;10511;51.232;9.420;2023-08-08T02:30:57;12.40;99.90
20700;DHT22;10511;51.232;9.420;2023-08-08T02:33:24;12.40;99.90
20700;DHT22;10511;51.232;9.420;2023-08-08T02:35:52;12.30;99.90
20700;DHT22;10511;51.232;9.420;2023-08-08T02:38:19;12.10;99.90
20700;DHT22;10511;51.232;9.420;2023-08-08T02:40:46;12.00;99.90
20700;DHT22;10511;51.232;9.420;2023-08-08T02:43:13;12.20;99.90
20700;DHT22;10511;51.232;9.420;2023-08-08T02:45:40;12.20;99.90
20700;DHT22;10511;51.232;9.420;2023-08-08T02:48:08;12.10;99.90
20700;DHT22;10511;51.232;9.420;2023-08-08T02:50:35;12.20;99.90
20700;DHT22;10511;51.232;9.420;2023-08-08T02:53:03;12.40;99.90
20700;DHT22;10511;51.232;9.420;2023-08-08T02:55:30;12.50;99.90
20700;DHT22;10511;51.232;9.420;2023-08-08T02:57:57;12.60;99.90
20700;DHT22;10511;51.232;9.420;2023-08-08T03:00:24;12.70;99.90
20700;DHT22;10511;51.232;9.420;2023-08-08T03:02:52;12.80;99.90
20700;DHT22;10511;51.232;9.420;2023-08-08T03:05:20;12.80;99.90
20700;DHT22;10511;51.232;9.420;2023-08-08T03:07:47;12.80;99.90
20700;DHT22;10511;51.232;9.420;2023-08-08T03:10:15;12.80;99.90
20700;DHT22;10511;51.232;9.420;2023-08-08T03:12:42;12.80;99.90
20700;DHT22;10511;51.232;9.420;2023-08-08T03:15:10;12.80;99.90
20700;DHT22;10511;51.232;9.420;2023-08-08T03:17:37;12.80;99.90
20700;DHT22;10511;51.232;9.420;2023-08-08T03:20:06;12.80;99.90
20700;DHT22;10511;51.232;9.420;2023-08-08T03:22:35;12.60;99.90
20700;DHT22;10511;51.232;9.420;2023-08-08T03:25:03;12.40;99.90
20700;DHT22;10511;51.232;9.420;2023-08-08T03:27:30;12.30;99.90
20700;DHT22;10511;51.232;9.420;2023-08-08T03:29:58;12.10;99.90
20700;DHT22;10511;51.232;9.420;2023-08-08T03:32:25;12.00;99.90
20700;DHT22;10511;51.232;9.420;2023-08-08T03:34:52;11.90;99.90
20700;DHT22;10511;51.232;9.420;2023-08-08T03:37:19;11.70;99.90
20700;DHT22;10511;51.232;9.420;2023-08-08T03:39:47;11.60;99.90
20700;DHT22;10511;51.232;9.420;2023-08-08T03:42:14;11.50;99.90
20700;DHT22;10511;51.232;9.420;2023-08-08T03:44:41;11.50;99.90
20700;DHT22;10511;51.232;9.420;2023-08-08T03:47:10;11.40;99.90
20700;DHT22;10511;51.232;9.420;2023-08-08T03:49:37;11.40;99.90
20700;DHT22;10511;51.232;9.420;2023-08-08T03:52:05;11.40;99.90
20700;DHT22;10511;51.232;9.420;2023-08-08T03:54:32;11.40;99.90
20700;DHT22;10511;51.232;9.420;2023-08-08T03:57:01;11.40;99.90
20700;DHT22;10511;51.232;9.420;2023-08-08T03:59:28;11.50;99.90
20700;DHT22;10511;51.232;9.420;2023-08-08T04:01:55;11.50;99.90
20700;DHT22;10511;51.232;9.420;2023-08-08T04:04:23;11.50;99.90
20700;DHT22;10511;51.232;9.420;2023-08-08T04:06:50;11.50;99.90
20700;DHT22;10511;51.232;9.420;2023-08-08T04:09:17;11.50;99.90
20700;DHT22;10511;51.232;9.420;2023-08-08T04:11:44;11.60;99.90
20700;DHT22;10511;51.232;9.420;2023-08-08T04:14:12;11.70;99.90
20700;DHT22;10511;51.232;9.420;2023-08-08T04:16:40;11.70;99.90
20700;DHT22;10511;51.232;9.420;2023-08-08T04:19:07;11.80;99.90
20700;DHT22;10511;51.232;9.420;2023-08-08T04:21:34;11.90;99.90
20700;DHT22;10511;51.232;9.420;2023-08-08T04:24:01;12.00;99.90
20700;DHT22;10511;51.232;9.420;2023-08-08T04:26:29;11.90;99.90
20700;DHT22;10511;51.232;9.420;2023-08-08T04:28:56;12.00;99.90
20700;DHT22;10511;51.232;9.420;2023-08-08T04:31:24;11.90;99.90
20700;DHT22;10511;51.232;9.420;2023-08-08T04:33:51;12.00;99.90
20700;DHT22;10511;51.232;9.420;2023-08-08T04:36:21;12.10;99.90
20700;DHT22;10511;51.232;9.420;2023-08-08T04:38:48;12.20;99.90
20700;DHT22;10511;51.232;9.420;2023-08-08T04:41:15;12.20;99.90
20700;DHT22;10511;51.232;9.420;2023-08-08T04:43:42;12.30;99.90
20700;DHT22;10511;51.232;9.420;2023-08-08T04:46:09;12.30;99.90
20700;DHT22;10511;51.232;9.420;2023-08-08T04:48:38;12.30;99.90
20700;DHT22;10511;51.232;9.420;2023-08-08T04:51:05;12.40;99.90
20700;DHT22;10511;51.232;9.420;2023-08-08T04:53:32;12.40;99.90
20700;DHT22;10511;51.232;9.420;2023-08-08T04:55:59;12.50;99.90
20700;DHT22;10511;51.232;9.420;2023-08-08T04:58:26;12.50;99.90
20700;DHT22;10511;51.232;9.420;2023-08-08T05:00:53;12.50;99.90
20700;DHT22;10511;51.232;9.420;2023-08-08T05:03:21;12.50;99.90
20700;DHT22;10511;51.232;9.420;2023-08-08T05:05:50;12.60;99.90
20700;DHT22;10511;51.232;9.420;2023-08-08T05:08:17;12.60;99.90
20700;DHT22;10511;51.232;9.420;2023-08-08T05:10:44;12.70;99.90
20700;DHT22;10511;51.232;9.420;2023-08-08T05:13:12;12.70;99.90
20700;DHT22;10511;51.232;9.420;2023-08-08T05:15:39;12.80;99.90
20700;DHT22;10511;51.232;9.420;2023-08-08T05:18:06;12.80;99.90
20700;DHT22;10511;51.232;9.420;2023-08-08T05:20:33;12.80;99.90
20700;DHT22;10511;51.232;9.420;2023-08-08T05:23:01;12.80;99.90
20700;DHT22;10511;51.232;9.420;2023-08-08T05:25:28;12.80;99.90
20700;DHT22;10511;51.232;9.420;2023-08-08T05:27:55;12.70;99.90
20700;DHT22;10511;51.232;9.420;2023-08-08T05:30:22;12.70;99.90
20700;DHT22;10511;51.232;9.420;2023-08-08T05:32:49;12.70;99.90
20700;DHT22;10511;51.232;9.420;2023-08-08T05:35:16;12.70;99.90
20700;DHT22;10511;51.232;9.420;2023-08-08T05:37:43;12.70;99.90
20700;DHT22;10511;51.232;9.420;2023-08-08T05:40:11;12.70;99.90
20700;DHT22;10511;51.232;9.420;2023-08-08T05:42:39;12.70;99.90
20700;DHT22;10511;51.232;9.420;2023-08-08T05:45:07;12.80;99.90
20700;DHT22;10511;51.232;9.420;2023-08-08T05:47:34;12.80;99.90
20700;DHT22;10511;51.232;9.420;2023-08-08T05:50:02;12.80;99.90
20700;DHT22;10511;51.232;9.420;2023-08-08T05:52:29;12.80;99.90
20700;DHT22;10511;51.232;9.420;2023-08-08T05:54:56;12.80;99.90
20700;DHT22;10511;51.232;9.420;2023-08-08T05:57:26;12.70;99.90
20700;DHT22;10511;51.232;9.420;2023-08-08T05:59:53;12.70;99.90
20700;DHT22;10511;51.232;9.420;2023-08-08T06:02:20;12.80;99.90
20700;DHT22;10511;51.232;9.420;2023-08-08T06:04:47;12.80;99.90
20700;DHT22;10511;51.232;9.420;2023-08-08T06:07:14;12.70;99.90
20700;DHT22;10511;51.232;9.420;2023-08-08T06:09:41;12.70;99.90
20700;DHT22;10511;51.232;9.420;2023-08-08T06:12:08;12.70;99.90
20700;DHT22;10511;51.232;9.420;2023-08-08T06:14:37;12.70;99.90
20700;DHT22;10511;51.232;9.420;2023-08-08T06:17:05;12.80;99.90
20700;DHT22;10511;51.232;9.420;2023-08-08T06:19:31;12.80;99.90
20700;DHT22;10511;51.232;9.420;2023-08-08T06:21:58;12.80;99.90
20700;DHT22;10511;51.232;9.420;2023-08-08T06:24:25;12.80;99.90
20700;DHT22;10511;51.232;9.420;2023-08-08T06:26:52;12.80;99.90
20700;DHT22;10511;51.232;9.420;2023-08-08T06:29:19;12.90;99.90
20700;DHT22;10511;51.232;9.420;2023-08-08T06:31:47;12.90;99.90
20700;DHT22;10511;51.232;9.420;2023-08-08T06:34:14;12.90;99.90
20700;DHT22;10511;51.232;9.420;2023-08-08T06:36:41;12.90;99.90
20700;DHT22;10511;51.232;9.420;2023-08-08T06:39:08;12.90;99.90
20700;DHT22;10511;51.232;9.420;2023-08-08T06:41:47;13.00;99.90
20700;DHT22;10511;51.232;9.420;2023-08-08T06:44:19;13.00;99.90
20700;DHT22;10511;51.232;9.420;2023-08-08T06:46:47;13.00;99.90
20700;DHT22;10511;51.232;9.420;2023-08-08T06:49:14;13.00;99.90
20700;DHT22;10511;51.232;9.420;2023-08-08T06:51:41;13.00;99.90
20700;DHT22;10511;51.232;9.420;2023-08-08T06:54:08;13.00;99.90
20700;DHT22;10511;51.232;9.420;2023-08-08T06:56:35;13.00;99.90
20700;DHT22;10511;51.232;9.420;2023-08-08T06:59:02;13.00;99.90
20700;DHT22;10511;51.232;9.420;2023-08-08T07:01:29;13.00;99.90
20700;DHT22;10511;51.232;9.420;2023-08-08T07:03:57;13.00;99.90
20700;DHT22;10511;51.232;9.420;2023-08-08T07:06:25;13.00;99.90
20700;DHT22;10511;51.232;9.420;2023-08-08T07:08:52;13.10;99.90
20700;DHT22;10511;51.232;9.420;2023-08-08T07:11:19;13.10;99.90
20700;DHT22;10511;51.232;9.420;2023-08-08T07:13:46;13.20;99.90
20700;DHT22;10511;51.232;9.420;2023-08-08T07:16:13;13.20;99.90
20700;DHT22;10511;51.232;9.420;2023-08-08T07:18:40;13.30;99.90
20700;DHT22;10511;51.232;9.420;2023-08-08T07:21:08;13.40;99.90
20700;DHT22;10511;51.232;9.420;2023-08-08T07:23:35;13.50;99.90
20700;DHT22;10511;51.232;9.420;2023-08-08T07:26:02;13.70;99.90
20700;DHT22;10511;51.232;9.420;2023-08-08T07:28:29;13.70;99.90
20700;DHT22;10511;51.232;9.420;2023-08-08T07:30:56;13.70;99.90
20700;DHT22;10511;51.232;9.420;2023-08-08T07:33:23;13.70;99.90
20700;DHT22;10511;51.232;9.420;2023-08-08T07:35:49;13.80;99.90
20700;DHT22;10511;51.232;9.420;2023-08-08T07:38:18;13.80;99.90
20700;DHT22;10511;51.232;9.420;2023-08-08T07:40:45;13.80;99.90
20700;DHT22;10511;51.232;9.420;2023-08-08T07:43:13;13.80;99.90
20700;DHT22;10511;51.232;9.420;2023-08-08T07:45:41;13.90;99.90
20700;DHT22;10511;51.232;9.420;2023-08-08T07:48:08;13.90;99.90
20700;DHT22;10511;51.232;9.420;2023-08-08T07:50:35;13.90;99.90
20700;DHT22;10511;51.232;9.420;2023-08-08T07:53:02;14.00;99.90
20700;DHT22;10511;51.232;9.420;2023-08-08T07:55:30;14.10;99.90
20700;DHT22;10511;51.232;9.420;2023-08-08T07:57:57;14.20;99.90
20700;DHT22;10511;51.232;9.420;2023-08-08T08:00:24;14.30;99.90
20700;DHT22;10511;51.232;9.420;2023-08-08T08:02:51;14.40;99.90
20700;DHT22;10511;51.232;9.420;2023-08-08T08:05:18;14.50;99.90
20700;DHT22;10511;51.232;9.420;2023-08-08T08:07:46;14.60;99.90
20700;DHT22;10511;51.232;9.420;2023-08-08T08:10:13;14.60;99.90
20700;DHT22;10511;51.232;9.420;2023-08-08T08:12:42;14.70;99.90
20700;DHT22;10511;51.232;9.420;2023-08-08T08:15:09;14.70;99.90
20700;DHT22;10511;51.232;9.420;2023-08-08T08:17:36;14.80;99.90
20700;DHT22;10511;51.232;9.420;2023-08-08T08:20:04;14.70;99.90
20700;DHT22;10511;51.232;9.420;2023-08-08T08:22:37;14.80;99.90
20700;DHT22;10511;51.232;9.420;2023-08-08T08:25:05;14.80;99.90
20700;DHT22;10511;51.232;9.420;2023-08-08T08:27:34;14.90;99.90
20700;DHT22;10511;51.232;9.420;2023-08-08T08:30:03;15.00;99.90
20700;DHT22;10511;51.232;9.420;2023-08-08T08:32:32;15.00;99.90
20700;DHT22;10511;51.232;9.420;2023-08-08T08:35:00;15.10;99.90
20700;DHT22;10511;51.232;9.420;2023-08-08T08:37:28;15.10;99.90
20700;DHT22;10511;51.232;9.420;2023-08-08T08:39:55;15.10;99.90
20700;DHT22;10511;51.232;9.420;2023-08-08T08:42:22;15.00;99.90
20700;DHT22;10511;51.232;9.420;2023-08-08T08:44:49;15.10;99.90
20700;DHT22;10511;51.232;9.420;2023-08-08T08:47:20;15.20;99.90
20700;DHT22;10511;51.232;9.420;2023-08-08T08:49:48;15.30;99.90
20700;DHT22;10511;51.232;9.420;2023-08-08T08:52:14;15.40;99.90
20700;DHT22;10511;51.232;9.420;2023-08-08T08:54:41;15.40;99.90
20700;DHT22;10511;51.232;9.420;2023-08-08T08:57:08;15.50;99.90
20700;DHT22;10511;51.232;9.420;2023-08-08T08:59:36;15.60;99.90
20700;DHT22;10511;51.232;9.420;2023-08-08T09:02:02;15.50;99.90
20700;DHT22;10511;51.232;9.420;2023-08-08T09:04:31;15.50;99.90
20700;DHT22;10511;51.232;9.420;2023-08-08T09:07:00;15.70;99.90
20700;DHT22;10511;51.232;9.420;2023-08-08T09:09:31;15.80;99.90
20700;DHT22;10511;51.232;9.420;2023-08-08T09:11:58;15.80;99.90
20700;DHT22;10511;51.232;9.420;2023-08-08T09:14:26;16.00;99.90
20700;DHT22;10511;51.232;9.420;2023-08-08T09:16:53;16.10;99.90
20700;DHT22;10511;51.232;9.420;2023-08-08T09:19:23;16.20;99.90
20700;DHT22;10511;51.232;9.420;2023-08-08T09:21:52;16.30;99.90
20700;DHT22;10511;51.232;9.420;2023-08-08T09:24:19;16.50;99.90
20700;DHT22;10511;51.232;9.420;2023-08-08T09:26:47;16.60;99.90
20700;DHT22;10511;51.232;9.420;2023-08-08T09:29:14;16.50;99.90
20700;DHT22;10511;51.232;9.420;2023-08-08T09:31:41;16.50;99.90
20700;DHT22;10511;51.232;9.420;2023-08-08T09:34:08;16.50;99.90
20700;DHT22;10511;51.232;9.420;2023-08-08T09:36:35;16.60;99.90
20700;DHT22;10511;51.232;9.420;2023-08-08T09:39:04;16.60;99.90
20700;DHT22;10511;51.232;9.420;2023-08-08T09:41:32;16.60;99.90
20700;DHT22;10511;51.232;9.420;2023-08-08T09:43:59;16.50;99.90
20700;DHT22;10511;51.232;9.420;2023-08-08T09:46:29;16.50;99.90
20700;DHT22;10511;51.232;9.420;2023-08-08T09:48:57;16.50;99.90
20700;DHT22;10511;51.232;9.420;2023-08-08T09:51:24;16.60;99.90
20700;DHT22;10511;51.232;9.420;2023-08-08T09:53:53;16.60;99.90
20700;DHT22;10511;51.232;9.420;2023-08-08T09:56:22;16.50;99.90
20700;DHT22;10511;51.232;9.420;2023-08-08T09:58:49;16.40;99.90
20700;DHT22;10511;51.232;9.420;2023-08-08T10:01:17;16.20;99.90
20700;DHT22;10511;51.232;9.420;2023-08-08T10:03:45;16.10;99.90
20700;DHT22;10511;51.232;9.420;2023-08-08T10:06:13;16.20;99.90
20700;DHT22;10511;51.232;9.420;2023-08-08T10:08:40;16.30;99.90
20700;DHT22;10511;51.232;9.420;2023-08-08T10:11:08;16.50;99.90
20700;DHT22;10511;51.232;9.420;2023-08-08T10:13:37;16.80;99.90
20700;DHT22;10511;51.232;9.420;2023-08-08T10:16:07;16.90;99.90
20700;DHT22;10511;51.232;9.420;2023-08-08T10:18:35;16.80;99.90
20700;DHT22;10511;51.232;9.420;2023-08-08T10:21:04;16.80;99.90
20700;DHT22;10511;51.232;9.420;2023-08-08T10:23:36;16.80;99.90
20700;DHT22;10511;51.232;9.420;2023-08-08T10:26:03;16.80;99.90
20700;DHT22;10511;51.232;9.420;2023-08-08T10:28:33;16.90;99.90
20700;DHT22;10511;51.232;9.420;2023-08-08T10:31:02;17.00;99.90
20700;DHT22;10511;51.232;9.420;2023-08-08T10:33:40;16.90;99.90
20700;DHT22;10511;51.232;9.420;2023-08-08T10:36:08;16.90;99.90
20700;DHT22;10511;51.232;9.420;2023-08-08T10:38:40;17.00;99.90
20700;DHT22;10511;51.232;9.420;2023-08-08T10:41:10;17.10;99.90
20700;DHT22;10511;51.232;9.420;2023-08-08T10:43:38;16.80;99.90
20700;DHT22;10511;51.232;9.420;2023-08-08T10:46:07;16.70;99.90
20700;DHT22;10511;51.232;9.420;2023-08-08T10:48:34;16.90;99.90
20700;DHT22;10511;51.232;9.420;2023-08-08T10:51:01;16.80;99.90
20700;DHT22;10511;51.232;9.420;2023-08-08T10:53:29;16.90;99.90
20700;DHT22;10511;51.232;9.420;2023-08-08T10:56:00;16.90;99.90
20700;DHT22;10511;51.232;9.420;2023-08-08T10:58:37;17.10;99.90
20700;DHT22;10511;51.232;9.420;2023-08-08T11:01:05;16.90;99.90
20700;DHT22;10511;51.232;9.420;2023-08-08T11:03:37;17.00;99.90
20700;DHT22;10511;51.232;9.420;2023-08-08T11:06:05;17.00;99.90
20700;DHT22;10511;51.232;9.420;2023-08-08T11:08:33;16.90;99.90
20700;DHT22;10511;51.232;9.420;2023-08-08T11:11:02;16.60;99.90
20700;DHT22;10511;51.232;9.420;2023-08-08T11:13:29;16.40;99.90
20700;DHT22;10511;51.232;9.420;2023-08-08T11:15:56;16.20;99.90
20700;DHT22;10511;51.232;9.420;2023-08-08T11:18:24;16.10;99.90
20700;DHT22;10511;51.232;9.420;2023-08-08T11:20:52;16.00;99.90
20700;DHT22;10511;51.232;9.420;2023-08-08T11:23:20;16.00;99.90
20700;DHT22;10511;51.232;9.420;2023-08-08T11:25:47;16.00;99.90
20700;DHT22;10511;51.232;9.420;2023-08-08T11:28:16;16.00;99.90
20700;DHT22;10511;51.232;9.420;2023-08-08T11:30:45;16.20;99.90
20700;DHT22;10511;51.232;9.420;2023-08-08T11:33:13;16.50;99.90
20700;DHT22;10511;51.232;9.420;2023-08-08T11:35:44;16.70;99.90
20700;DHT22;10511;51.232;9.420;2023-08-08T11:38:16;16.70;99.90
20700;DHT22;10511;51.232;9.420;2023-08-08T11:40:44;16.80;99.90
20700;DHT22;10511;51.232;9.420;2023-08-08T11:43:12;16.90;99.90
20700;DHT22;10511;51.232;9.420;2023-08-08T11:45:39;16.80;99.90
20700;DHT22;10511;51.232;9.420;2023-08-08T11:48:08;16.70;99.90
20700;DHT22;10511;51.232;9.420;2023-08-08T11:50:37;16.60;99.90
20700;DHT22;10511;51.232;9.420;2023-08-08T11:53:06;16.60;99.90
20700;DHT22;10511;51.232;9.420;2023-08-08T11:55:36;16.40;99.90
20700;DHT22;10511;51.232;9.420;2023-08-08T11:58:03;16.30;99.90
20700;DHT22;10511;51.232;9.420;2023-08-08T12:00:31;16.20;99.90
20700;DHT22;10511;51.232;9.420;2023-08-08T12:02:59;16.10;99.90
20700;DHT22;10511;51.232;9.420;2023-08-08T12:05:27;15.80;99.90
20700;DHT22;10511;51.232;9.420;2023-08-08T12:07:55;15.40;99.90
20700;DHT22;10511;51.232;9.420;2023-08-08T12:10:23;15.30;99.90
20700;DHT22;10511;51.232;9.420;2023-08-08T12:12:55;15.20;99.90
20700;DHT22;10511;51.232;9.420;2023-08-08T12:15:23;15.00;99.90
20700;DHT22;10511;51.232;9.420;2023-08-08T12:17:51;14.90;99.90
20700;DHT22;10511;51.232;9.420;2023-08-08T12:20:19;14.80;99.90
20700;DHT22;10511;51.232;9.420;2023-08-08T12:22:46;14.70;99.90
20700;DHT22;10511;51.232;9.420;2023-08-08T12:25:13;14.70;99.90
20700;DHT22;10511;51.232;9.420;2023-08-08T12:27:40;14.70;99.90
20700;DHT22;10511;51.232;9.420;2023-08-08T12:30:09;14.80;99.90
20700;DHT22;10511;51.232;9.420;2023-08-08T12:32:36;14.90;99.90
20700;DHT22;10511;51.232;9.420;2023-08-08T12:35:04;15.20;99.90
20700;DHT22;10511;51.232;9.420;2023-08-08T12:37:32;15.30;99.90
20700;DHT22;10511;51.232;9.420;2023-08-08T12:39:59;15.50;99.90
20700;DHT22;10511;51.232;9.420;2023-08-08T12:42:27;15.70;99.90
20700;DHT22;10511;51.232;9.420;2023-08-08T12:44:54;15.90;99.90
20700;DHT22;10511;51.232;9.420;2023-08-08T12:47:23;16.00;99.90
20700;DHT22;10511;51.232;9.420;2023-08-08T12:49:49;16.10;99.90
20700;DHT22;10511;51.232;9.420;2023-08-08T12:52:17;16.20;99.90
20700;DHT22;10511;51.232;9.420;2023-08-08T12:54:43;16.20;99.90
20700;DHT22;10511;51.232;9.420;2023-08-08T12:57:10;16.20;99.90
20700;DHT22;10511;51.232;9.420;2023-08-08T12:59:37;16.20;99.90
20700;DHT22;10511;51.232;9.420;2023-08-08T13:02:04;16.20;99.90
20700;DHT22;10511;51.232;9.420;2023-08-08T13:04:33;16.20;99.90
20700;DHT22;10511;51.232;9.420;2023-08-08T13:07:00;16.20;99.90
20700;DHT22;10511;51.232;9.420;2023-08-08T13:09:27;16.30;99.90
20700;DHT22;10511;51.232;9.420;2023-08-08T13:11:54;16.30;99.90
20700;DHT22;10511;51.232;9.420;2023-08-08T13:14:21;16.40;99.90
20700;DHT22;10511;51.232;9.420;2023-08-08T13:16:48;16.50;99.90
20700;DHT22;10511;51.232;9.420;2023-08-08T13:19:15;16.60;99.90
20700;DHT22;10511;51.232;9.420;2023-08-08T13:21:47;16.70;99.90
20700;DHT22;10511;51.232;9.420;2023-08-08T13:24:16;16.50;99.90
20700;DHT22;10511;51.232;9.420;2023-08-08T13:26:43;16.50;99.90
20700;DHT22;10511;51.232;9.420;2023-08-08T13:29:13;16.50;99.90
20700;DHT22;10511;51.232;9.420;2023-08-08T13:31:40;16.40;99.90
20700;DHT22;10511;51.232;9.420;2023-08-08T13:34:08;16.30;99.90
20700;DHT22;10511;51.232;9.420;2023-08-08T13:36:35;16.20;99.90
20700;DHT22;10511;51.232;9.420;2023-08-08T13:39:04;16.20;99.90
20700;DHT22;10511;51.232;9.420;2023-08-08T13:41:32;16.20;99.90
20700;DHT22;10511;51.232;9.420;2023-08-08T13:43:59;16.20;99.90
20700;DHT22;10511;51.232;9.420;2023-08-08T13:46:27;16.20;99.90
20700;DHT22;10511;51.232;9.420;2023-08-08T13:48:54;16.10;99.90
20700;DHT22;10511;51.232;9.420;2023-08-08T13:51:22;16.20;99.90
20700;DHT22;10511;51.232;9.420;2023-08-08T13:53:49;16.10;99.90
20700;DHT22;10511;51.232;9.420;2023-08-08T13:56:18;16.20;99.90
20700;DHT22;10511;51.232;9.420;2023-08-08T13:58:46;16.20;99.90
20700;DHT22;10511;51.232;9.420;2023-08-08T14:01:13;16.40;99.90
20700;DHT22;10511;51.232;9.420;2023-08-08T14:03:41;16.50;99.90
20700;DHT22;10511;51.232;9.420;2023-08-08T14:06:08;16.80;99.90
20700;DHT22;10511;51.232;9.420;2023-08-08T14:08:35;17.10;99.90
20700;DHT22;10511;51.232;9.420;2023-08-08T14:11:02;17.00;99.90
20700;DHT22;10511;51.232;9.420;2023-08-08T14:13:30;16.90;99.90
20700;DHT22;10511;51.232;9.420;2023-08-08T14:15:57;16.60;99.90
20700;DHT22;10511;51.232;9.420;2023-08-08T14:18:24;16.60;99.90
20700;DHT22;10511;51.232;9.420;2023-08-08T14:20:51;16.40;99.90
20700;DHT22;10511;51.232;9.420;2023-08-08T14:23:19;16.40;99.90
20700;DHT22;10511;51.232;9.420;2023-08-08T14:25:47;16.60;99.90
20700;DHT22;10511;51.232;9.420;2023-08-08T14:28:14;16.90;99.90
20700;DHT22;10511;51.232;9.420;2023-08-08T14:30:42;17.00;99.90
20700;DHT22;10511;51.232;9.420;2023-08-08T14:33:09;17.00;99.90
20700;DHT22;10511;51.232;9.420;2023-08-08T14:35:36;16.70;99.90
20700;DHT22;10511;51.232;9.420;2023-08-08T14:38:03;16.60;99.90
20700;DHT22;10511;51.232;9.420;2023-08-08T14:40:30;16.50;99.90
20700;DHT22;10511;51.232;9.420;2023-08-08T14:42:59;16.30;99.90
20700;DHT22;10511;51.232;9.420;2023-08-08T14:45:25;16.30;99.90
20700;DHT22;10511;51.232;9.420;2023-08-08T14:47:53;16.30;99.90
20700;DHT22;10511;51.232;9.420;2023-08-08T14:50:20;16.20;99.90
20700;DHT22;10511;51.232;9.420;2023-08-08T14:52:47;16.20;99.90
20700;DHT22;10511;51.232;9.420;2023-08-08T14:55:14;16.20;99.90
20700;DHT22;10511;51.232;9.420;2023-08-08T14:57:41;16.30;99.90
20700;DHT22;10511;51.232;9.420;2023-08-08T15:00:11;16.30;99.90
20700;DHT22;10511;51.232;9.420;2023-08-08T15:02:40;16.30;99.90
20700;DHT22;10511;51.232;9.420;2023-08-08T15:05:10;16.30;99.90
20700;DHT22;10511;51.232;9.420;2023-08-08T15:07:37;16.30;99.90
20700;DHT22;10511;51.232;9.420;2023-08-08T15:10:05;16.20;99.90
20700;DHT22;10511;51.232;9.420;2023-08-08T15:12:32;16.00;99.90
20700;DHT22;10511;51.232;9.420;2023-08-08T15:14:59;15.90;99.90
20700;DHT22;10511;51.232;9.420;2023-08-08T15:17:28;15.70;99.90
20700;DHT22;10511;51.232;9.420;2023-08-08T15:19:56;15.60;99.90
20700;DHT22;10511;51.232;9.420;2023-08-08T15:22:24;15.50;99.90
20700;DHT22;10511;51.232;9.420;2023-08-08T15:24:52;15.40;99.90
20700;DHT22;10511;51.232;9.420;2023-08-08T15:27:19;15.20;99.90
20700;DHT22;10511;51.232;9.420;2023-08-08T15:29:46;15.10;99.90
20700;DHT22;10511;51.232;9.420;2023-08-08T15:32:13;15.20;99.90